Time;durP1;ratioP1;P1;durP2;ratioP2;P2;SDS_P1;SDS_P2;PMS_P1;PMS_P2;Temp;Humidity;BMP_temperature;BMP_pressure;BME280_temperature;BME280_humidity;BME280_pressure;Samples;Min_cycle;Max_cycle;Signal;HPM_P1;HPM_P2
2023/08/06 00:01:25;;;;;;;12.70;8.73;;;13.70;99.90;;;;;;4968273;28;20066;-71
2023/08/06 00:03:52;;;;;;;10.35;9.23;;;13.70;99.90;;;;;;4970728;28;20136;-71
2023/08/06 00:06:19;;;;;;;10.77;9.35;;;13.70;99.90;;;;;;4972122;28;20043;-70
2023/08/06 00:08:45;;;;;;;11.10;9.38;;;13.80;99.90;;;;;;4968816;28;20050;-71
2023/08/06 00:11:13;;;;;;;13.75;10.90;;;13.80;99.90;;;;;;4968219;28;20092;-71
2023/08/06 00:13:39;;;;;;;11.18;8.68;;;13.70;99.90;;;;;;4985579;28;20046;-70
2023/08/06 00:16:13;;;;;;;13.05;10.52;;;13.80;99.90;;;;;;4994546;28;20038;-70
2023/08/06 00:18:40;;;;;;;11.98;9.30;;;13.80;99.90;;;;;;4984216;28;20200;-71
2023/08/06 00:21:07;;;;;;;11.48;9.35;;;13.70;99.90;;;;;;4983819;28;20054;-70
2023/08/06 00:23:34;;;;;;;11.70;10.38;;;13.70;99.90;;;;;;4970187;28;20045;-71
2023/08/06 00:26:00;;;;;;;12.80;10.32;;;13.70;99.90;;;;;;4965187;28;20110;-71
2023/08/06 00:28:27;;;;;;;10.50;8.80;;;13.60;99.90;;;;;;4965353;28;20050;-71
2023/08/06 00:30:55;;;;;;;11.82;9.30;;;13.70;99.90;;;;;;4969519;28;20046;-71
2023/08/06 00:33:22;;;;;;;10.57;9.45;;;13.70;99.90;;;;;;4971911;28;20055;-71
2023/08/06 00:35:49;;;;;;;12.55;10.13;;;13.80;99.90;;;;;;4967648;28;20456;-71
2023/08/06 00:38:16;;;;;;;11.43;9.10;;;13.70;99.90;;;;;;4953791;28;20425;-72
2023/08/06 00:40:43;;;;;;;11.95;9.27;;;13.70;99.90;;;;;;4965838;28;20104;-70
2023/08/06 00:43:10;;;;;;;11.05;9.20;;;13.70;99.90;;;;;;4971157;28;20053;-70
2023/08/06 00:45:37;;;;;;;11.15;9.65;;;13.70;99.90;;;;;;4967483;28;20563;-72
2023/08/06 00:48:05;;;;;;;13.77;10.57;;;13.70;99.90;;;;;;4969332;28;20038;-71
2023/08/06 00:50:32;;;;;;;11.60;9.48;;;13.70;99.90;;;;;;4969334;28;20138;-71
2023/08/06 00:52:59;;;;;;;11.98;9.65;;;13.70;99.90;;;;;;4970895;28;21289;-71
2023/08/06 00:55:26;;;;;;;11.98;9.20;;;13.70;99.90;;;;;;4969790;28;20053;-70
2023/08/06 00:57:56;;;;;;;13.80;9.98;;;13.70;99.90;;;;;;4968399;28;20140;-71
2023/08/06 01:00:24;;;;;;;12.18;9.60;;;13.70;99.90;;;;;;4969274;28;20046;-72
2023/08/06 01:02:52;;;;;;;15.63;11.30;;;13.70;99.90;;;;;;4967010;28;20583;-71
2023/08/06 01:05:21;;;;;;;13.80;10.23;;;13.70;99.90;;;;;;4969415;28;20046;-71
2023/08/06 01:08:04;;;;;;;12.50;10.68;;;13.80;99.90;;;;;;4953706;28;20050;-69
2023/08/06 01:10:46;;;;;;;12.98;10.23;;;13.80;99.90;;;;;;4983090;28;20487;-70
2023/08/06 01:13:41;;;;;;;15.75;9.35;;;13.80;99.90;;;;;;4980865;28;20077;-71
2023/08/06 01:16:09;;;;;;;;;;;13.80;99.90;;;;;;4969330;28;20077;-70
2023/08/06 01:18:38;;;;;;;11.18;10.02;;;13.90;99.90;;;;;;4965927;28;20389;-72
2023/08/06 01:21:05;;;;;;;12.68;10.70;;;13.90;99.90;;;;;;4970292;28;20559;-72
2023/08/06 01:23:33;;;;;;;11.50;10.02;;;13.90;99.90;;;;;;4971012;28;20475;-69
2023/08/06 01:26:32;;;;;;;13.50;9.93;;;13.80;99.90;;;;;;4968442;28;20392;-71
2023/08/06 01:29:02;;;;;;;11.40;10.30;;;13.80;99.90;;;;;;4936294;28;20043;-70
2023/08/06 01:31:36;;;;;;;15.50;11.93;;;13.80;99.90;;;;;;4976834;28;20066;-70
2023/08/06 01:34:05;;;;;;;13.82;12.25;;;13.80;99.90;;;;;;4973123;28;21680;-72
2023/08/06 01:36:32;;;;;;;14.50;11.68;;;13.70;99.90;;;;;;4966006;28;20042;-70
2023/08/06 01:38:59;;;;;;;12.88;11.40;;;13.80;99.90;;;;;;4969765;28;20046;-72
2023/08/06 01:41:26;;;;;;;16.63;12.82;;;13.80;99.90;;;;;;4974502;28;20606;-72
2023/08/06 01:43:53;;;;;;;15.75;12.18;;;13.80;99.90;;;;;;4973034;28;20054;-72
2023/08/06 01:46:19;;;;;;;13.95;11.20;;;13.80;99.90;;;;;;4972498;28;20042;-70
2023/08/06 01:48:46;;;;;;;13.40;11.98;;;13.70;99.90;;;;;;4971918;28;20042;-72
2023/08/06 01:51:13;;;;;;;14.70;12.45;;;13.70;99.90;;;;;;4958254;28;20038;-69
2023/08/06 01:53:40;;;;;;;16.23;12.38;;;13.70;99.90;;;;;;4971203;28;20053;-69
2023/08/06 01:56:06;;;;;;;11.95;10.63;;;13.60;99.90;;;;;;4966724;28;20224;-73
2023/08/06 01:58:34;;;;;;;12.73;11.30;;;13.60;99.90;;;;;;4959413;28;20082;-71
2023/08/06 02:01:01;;;;;;;12.60;11.30;;;13.60;99.90;;;;;;4980343;28;20046;-71
2023/08/06 02:03:28;;;;;;;11.30;10.20;;;13.60;99.90;;;;;;4972720;28;20050;-72
2023/08/06 02:05:55;;;;;;;11.05;9.43;;;13.50;99.90;;;;;;4970132;28;20049;-70
2023/08/06 02:08:22;;;;;;;12.15;10.05;;;13.60;99.90;;;;;;4972755;28;20337;-71
2023/08/06 02:10:49;;;;;;;12.18;10.65;;;13.50;99.90;;;;;;4971144;28;20047;-69
2023/08/06 02:13:15;;;;;;;14.23;10.93;;;13.50;99.90;;;;;;4972851;28;20472;-72
2023/08/06 02:15:44;;;;;;;13.13;10.68;;;13.50;99.90;;;;;;4973588;28;20633;-70
2023/08/06 02:18:11;;;;;;;14.23;11.77;;;13.40;99.90;;;;;;4970632;28;20056;-70
2023/08/06 02:20:38;;;;;;;14.43;10.88;;;13.40;99.90;;;;;;4972750;28;20042;-70
2023/08/06 02:23:04;;;;;;;13.15;10.93;;;13.40;99.90;;;;;;4959866;28;20058;-70
2023/08/06 02:25:31;;;;;;;14.00;10.05;;;13.50;99.90;;;;;;4975563;28;20612;-70
2023/08/06 02:27:59;;;;;;;12.10;10.77;;;13.40;99.90;;;;;;4971921;28;20226;-71
2023/08/06 02:30:26;;;;;;;15.30;11.93;;;13.50;99.90;;;;;;4973452;28;20061;-71
2023/08/06 02:32:52;;;;;;;16.30;12.25;;;13.40;99.90;;;;;;4971868;28;20551;-71
2023/08/06 02:35:19;;;;;;;12.38;10.65;;;13.40;99.90;;;;;;4986634;28;20386;-70
2023/08/06 02:37:46;;;;;;;17.23;12.52;;;13.40;99.90;;;;;;4969868;28;20138;-71
2023/08/06 02:40:13;;;;;;;17.95;12.65;;;13.40;99.90;;;;;;4971998;28;20061;-70
2023/08/06 02:42:40;;;;;;;17.45;14.40;;;13.30;99.90;;;;;;4971150;28;20100;-73
2023/08/06 02:45:07;;;;;;;17.40;14.02;;;13.30;99.90;;;;;;4971100;28;20076;-72
2023/08/06 02:47:34;;;;;;;21.05;14.73;;;13.20;99.90;;;;;;4970971;28;20452;-71
2023/08/06 02:50:01;;;;;;;18.80;14.48;;;13.20;99.90;;;;;;4968873;28;20047;-72
2023/08/06 02:52:29;;;;;;;18.27;14.30;;;13.20;99.90;;;;;;4969991;28;20046;-72
2023/08/06 02:54:56;;;;;;;19.17;14.32;;;13.10;99.90;;;;;;4965418;28;20351;-71
2023/08/06 02:57:22;;;;;;;21.08;15.23;;;13.10;99.90;;;;;;4983810;28;20113;-71
2023/08/06 02:59:51;;;;;;;18.55;14.93;;;13.00;99.90;;;;;;4953409;28;20039;-72
2023/08/06 03:02:20;;;;;;;19.33;15.35;;;13.00;99.90;;;;;;4954978;28;20046;-71
2023/08/06 03:04:58;;;;;;;20.73;15.60;;;13.00;99.90;;;;;;4967689;28;20129;-72
2023/08/06 03:07:28;;;;;;;22.00;15.38;;;13.00;99.90;;;;;;4971971;28;20105;-72
2023/08/06 03:10:02;;;;;;;23.55;15.95;;;12.90;99.90;;;;;;4969663;28;20655;-71
2023/08/06 03:12:29;;;;;;;23.95;16.13;;;12.80;99.90;;;;;;4967183;28;20107;-72
2023/08/06 03:14:57;;;;;;;21.95;17.27;;;12.90;99.90;;;;;;4968883;28;20375;-71
2023/08/06 03:17:24;;;;;;;23.50;16.67;;;12.80;99.90;;;;;;4983171;28;20627;-72
2023/08/06 03:19:51;;;;;;;25.88;17.65;;;12.80;99.90;;;;;;4964909;28;20045;-71
2023/08/06 03:22:18;;;;;;;26.27;18.27;;;12.80;99.90;;;;;;4971169;28;20042;-71
2023/08/06 03:24:45;;;;;;;24.23;18.60;;;12.80;99.90;;;;;;4964929;28;20047;-71
2023/08/06 03:27:12;;;;;;;28.17;19.77;;;12.80;99.90;;;;;;4983408;28;20066;-72
2023/08/06 03:29:41;;;;;;;29.85;19.90;;;12.80;99.90;;;;;;4972525;28;20066;-71
2023/08/06 03:32:11;;;;;;;27.75;19.70;;;12.70;99.90;;;;;;4954452;28;20082;-71
2023/08/06 03:34:39;;;;;;;30.17;20.95;;;12.60;99.90;;;;;;4973945;28;20124;-72
2023/08/06 03:37:06;;;;;;;33.38;21.70;;;12.60;99.90;;;;;;4965262;28;20043;-72
2023/08/06 03:39:33;;;;;;;32.75;20.98;;;12.60;99.90;;;;;;4985499;28;20418;-72
2023/08/06 03:42:00;;;;;;;32.08;21.48;;;12.50;99.90;;;;;;4947942;28;20046;-69
2023/08/06 03:44:28;;;;;;;32.55;22.13;;;12.50;99.90;;;;;;4968966;28;20121;-71
2023/08/06 03:46:54;;;;;;;34.65;21.58;;;12.50;99.90;;;;;;4973400;28;20390;-72
2023/08/06 03:49:21;;;;;;;35.92;23.27;;;12.50;99.90;;;;;;4955978;28;20061;-70
2023/08/06 03:51:48;;;;;;;37.17;21.92;;;12.50;99.90;;;;;;4964616;28;20039;-69
2023/08/06 03:54:15;;;;;;;37.05;23.88;;;12.50;99.90;;;;;;4973984;28;20283;-70
2023/08/06 03:56:42;;;;;;;42.65;25.90;;;12.30;99.90;;;;;;4972686;28;20531;-72
2023/08/06 03:59:08;;;;;;;46.97;27.30;;;12.30;99.90;;;;;;4965401;28;20065;-72
2023/08/06 04:01:35;;;;;;;47.50;26.80;;;12.40;99.90;;;;;;4965299;28;20061;-72
2023/08/06 04:04:02;;;;;;;50.60;27.48;;;12.30;99.90;;;;;;4969875;28;20089;-72
2023/08/06 04:06:29;;;;;;;44.35;26.05;;;12.30;99.90;;;;;;4971710;28;20044;-72
2023/08/06 04:08:55;;;;;;;49.40;26.52;;;12.40;99.90;;;;;;4954905;28;20112;-71
2023/08/06 04:11:22;;;;;;;49.10;25.70;;;12.40;99.90;;;;;;4964963;28;20046;-71
2023/08/06 04:13:49;;;;;;;50.15;25.50;;;12.40;99.90;;;;;;4970464;28;20046;-72
2023/08/06 04:16:16;;;;;;;53.83;28.17;;;12.30;99.90;;;;;;4966758;28;20141;-71
2023/08/06 04:18:43;;;;;;;50.95;26.52;;;12.40;99.90;;;;;;4965995;28;20113;-73
2023/08/06 04:21:12;;;;;;;45.90;26.67;;;12.30;99.90;;;;;;4960574;28;20046;-70
2023/08/06 04:23:39;;;;;;;46.03;26.05;;;12.30;99.90;;;;;;4971707;28;20247;-72
2023/08/06 04:26:08;;;;;;;46.72;25.77;;;12.30;99.90;;;;;;4965334;28;21309;-71
2023/08/06 04:28:36;;;;;;;36.60;22.35;;;12.30;99.90;;;;;;4970185;28;20743;-72
2023/08/06 04:31:03;;;;;;;43.40;24.67;;;12.30;99.90;;;;;;4952559;28;20073;-71
2023/08/06 04:33:32;;;;;;;37.35;24.17;;;12.40;99.90;;;;;;4971287;28;20137;-70
2023/08/06 04:36:04;;;;;;;40.55;25.42;;;12.40;99.90;;;;;;4965741;28;20054;-70
2023/08/06 04:38:33;;;;;;;41.88;25.20;;;12.40;99.90;;;;;;4980225;28;20081;-73
2023/08/06 04:41:01;;;;;;;43.83;25.95;;;12.60;99.90;;;;;;4951533;28;20088;-71
2023/08/06 04:43:28;;;;;;;40.67;24.98;;;12.70;99.90;;;;;;4968014;28;20046;-70
2023/08/06 04:46:00;;;;;;;45.92;24.55;;;12.80;99.90;;;;;;4988009;28;20034;-70
2023/08/06 04:48:27;;;;;;;39.42;25.60;;;12.90;99.90;;;;;;5007093;28;20100;-70
2023/08/06 04:50:54;;;;;;;40.00;24.55;;;12.90;99.90;;;;;;4974778;28;20043;-70
2023/08/06 04:53:23;;;;;;;37.33;24.77;;;12.90;99.90;;;;;;4968541;28;20038;-71
2023/08/06 04:55:50;;;;;;;36.33;24.48;;;13.10;99.90;;;;;;4971116;28;20046;-70
2023/08/06 04:58:17;;;;;;;33.90;23.40;;;13.30;99.90;;;;;;4964762;28;20093;-70
2023/08/06 05:00:43;;;;;;;29.80;21.17;;;13.30;99.90;;;;;;4970000;28;20513;-70
2023/08/06 05:03:10;;;;;;;27.42;20.15;;;13.40;99.90;;;;;;4965229;28;20043;-70
2023/08/06 05:05:39;;;;;;;26.73;19.63;;;13.40;99.90;;;;;;4969722;28;20039;-70
2023/08/06 05:08:06;;;;;;;24.73;18.10;;;13.40;99.90;;;;;;4964246;28;20120;-70
2023/08/06 05:10:33;;;;;;;24.25;17.80;;;13.50;99.90;;;;;;4963945;28;20288;-70
2023/08/06 05:13:00;;;;;;;23.98;18.50;;;13.60;99.90;;;;;;4967386;28;20038;-70
2023/08/06 05:15:27;;;;;;;25.27;18.67;;;13.60;99.90;;;;;;4971774;28;20043;-70
2023/08/06 05:17:54;;;;;;;24.15;18.30;;;13.70;99.90;;;;;;4965824;28;20050;-70
2023/08/06 05:20:21;;;;;;;25.08;18.02;;;13.70;99.90;;;;;;4971830;28;20047;-71
2023/08/06 05:22:48;;;;;;;23.58;18.33;;;13.70;99.90;;;;;;4977393;28;20054;-70
2023/08/06 05:25:14;;;;;;;22.25;15.88;;;13.70;99.90;;;;;;4970494;28;20057;-70
2023/08/06 05:27:41;;;;;;;21.58;16.80;;;13.80;99.90;;;;;;4974997;28;20519;-70
2023/08/06 05:30:09;;;;;;;24.52;16.60;;;13.80;99.90;;;;;;4981436;28;20443;-70
2023/08/06 05:32:35;;;;;;;21.67;17.25;;;13.80;99.90;;;;;;4984485;28;20046;-70
2023/08/06 05:35:03;;;;;;;20.63;15.93;;;13.90;99.90;;;;;;4979610;28;20050;-71
2023/08/06 05:37:29;;;;;;;22.67;16.52;;;13.90;99.90;;;;;;4984275;28;20042;-70
2023/08/06 05:39:56;;;;;;;20.45;16.58;;;13.90;99.90;;;;;;4983632;28;20050;-70
2023/08/06 05:42:23;;;;;;;20.83;14.82;;;14.00;99.90;;;;;;4990312;28;20110;-70
2023/08/06 05:44:49;;;;;;;18.23;14.60;;;14.00;99.90;;;;;;4975077;28;20571;-70
2023/08/06 05:47:16;;;;;;;19.85;15.50;;;14.10;99.90;;;;;;4966393;28;20526;-71
2023/08/06 05:49:43;;;;;;;25.45;16.10;;;14.10;99.90;;;;;;4972625;28;20274;-71
2023/08/06 05:52:10;;;;;;;20.23;15.52;;;14.10;99.90;;;;;;4968434;28;20042;-70
2023/08/06 05:54:36;;;;;;;26.33;15.55;;;14.20;99.90;;;;;;4970180;28;20062;-71
2023/08/06 05:57:06;;;;;;;18.10;15.02;;;14.20;99.90;;;;;;4969096;28;20049;-71
2023/08/06 05:59:33;;;;;;;18.25;14.70;;;14.10;99.90;;;;;;4973107;28;20505;-70
2023/08/06 06:02:03;;;;;;;20.65;15.05;;;14.20;99.90;;;;;;4969464;28;20046;-70
2023/08/06 06:04:32;;;;;;;16.80;13.77;;;14.30;99.90;;;;;;4975224;28;20039;-71
2023/08/06 06:06:59;;;;;;;26.30;15.48;;;14.40;99.90;;;;;;4963225;28;20281;-71
2023/08/06 06:09:32;;;;;;;18.65;14.93;;;14.40;99.90;;;;;;4971030;28;20055;-70
2023/08/06 06:11:59;;;;;;;20.95;15.65;;;14.40;99.90;;;;;;4968501;28;20062;-69
2023/08/06 06:14:25;;;;;;;17.70;12.70;;;14.50;99.90;;;;;;4969508;28;20081;-71
2023/08/06 06:16:53;;;;;;;16.35;13.43;;;14.50;99.90;;;;;;4973731;28;20283;-70
2023/08/06 06:19:19;;;;;;;20.15;13.65;;;14.70;99.90;;;;;;4960947;28;20564;-71
2023/08/06 06:21:49;;;;;;;15.23;13.20;;;14.70;99.90;;;;;;4953587;28;20066;-70
2023/08/06 06:24:16;;;;;;;16.23;13.73;;;14.80;99.90;;;;;;4970265;28;20051;-70
2023/08/06 06:26:42;;;;;;;13.55;12.15;;;14.80;99.90;;;;;;4971262;28;20586;-71
2023/08/06 06:29:13;;;;;;;14.50;12.27;;;14.80;99.90;;;;;;4960714;28;20046;-71
2023/08/06 06:31:39;;;;;;;16.17;12.32;;;15.00;99.90;;;;;;4963713;28;20039;-71
2023/08/06 06:34:06;;;;;;;19.13;12.13;;;15.10;99.90;;;;;;4972830;28;20038;-71
2023/08/06 06:36:33;;;;;;;16.05;13.93;;;15.10;99.90;;;;;;4973979;28;20038;-72
2023/08/06 06:39:00;;;;;;;18.17;13.73;;;15.20;99.90;;;;;;4974640;28;20567;-73
2023/08/06 06:41:29;;;;;;;15.23;11.90;;;15.40;99.90;;;;;;4953495;28;21905;-71
2023/08/06 06:44:03;;;;;;;13.93;12.40;;;15.40;99.90;;;;;;4969759;28;20101;-72
2023/08/06 06:46:30;;;;;;;14.10;12.18;;;15.60;99.90;;;;;;4970185;28;20654;-72
2023/08/06 06:48:56;;;;;;;12.55;11.32;;;15.70;99.90;;;;;;4962738;28;20039;-71
2023/08/06 06:51:23;;;;;;;15.65;11.63;;;15.80;99.90;;;;;;4966546;28;20090;-72
2023/08/06 06:53:49;;;;;;;12.80;10.38;;;16.00;99.90;;;;;;4969735;28;20046;-72
2023/08/06 06:56:16;;;;;;;13.73;12.50;;;16.10;99.90;;;;;;4967326;28;20046;-72
2023/08/06 06:58:43;;;;;;;12.88;11.70;;;16.10;99.90;;;;;;4967028;28;20046;-73
2023/08/06 07:01:11;;;;;;;14.10;11.48;;;16.20;99.90;;;;;;4971675;28;20120;-73
2023/08/06 07:03:38;;;;;;;12.68;11.48;;;16.20;99.90;;;;;;4975084;28;20043;-73
2023/08/06 07:06:06;;;;;;;13.07;12.07;;;16.50;99.90;;;;;;4967133;28;20057;-73
2023/08/06 07:08:33;;;;;;;14.32;12.65;;;16.50;99.90;;;;;;4971376;28;20050;-72
2023/08/06 07:11:02;;;;;;;14.50;13.35;;;16.40;99.90;;;;;;4970923;28;20450;-73
2023/08/06 07:13:31;;;;;;;13.77;12.82;;;16.50;99.90;;;;;;4973856;28;20054;-73
2023/08/06 07:15:58;;;;;;;14.70;13.63;;;16.70;99.90;;;;;;4970679;28;20509;-72
2023/08/06 07:18:25;;;;;;;17.00;15.80;;;16.90;99.90;;;;;;4963345;28;20770;-73
2023/08/06 07:20:53;;;;;;;18.13;16.98;;;17.10;99.90;;;;;;4973010;28;20071;-73
2023/08/06 07:23:24;;;;;;;17.23;16.23;;;17.30;99.90;;;;;;4965126;28;20100;-72
2023/08/06 07:25:51;;;;;;;18.83;17.73;;;17.50;99.90;;;;;;4973183;28;20104;-73
2023/08/06 07:28:18;;;;;;;18.88;17.55;;;17.90;99.90;;;;;;4966362;28;20050;-70
2023/08/06 07:30:45;;;;;;;19.27;18.08;;;18.30;99.90;;;;;;4970104;28;20086;-74
2023/08/06 07:33:13;;;;;;;22.15;20.63;;;18.40;99.90;;;;;;4969435;28;20042;-72
2023/08/06 07:35:39;;;;;;;21.00;19.60;;;18.30;99.90;;;;;;4970352;28;20529;-73
2023/08/06 07:38:06;;;;;;;20.83;19.73;;;18.60;99.90;;;;;;4969574;28;20113;-72
2023/08/06 07:40:36;;;;;;;21.73;20.52;;;18.70;99.90;;;;;;4968134;28;20679;-73
2023/08/06 07:43:03;;;;;;;23.63;21.45;;;18.90;99.90;;;;;;4973341;28;20057;-73
2023/08/06 07:45:37;;;;;;;23.20;21.77;;;19.20;99.90;;;;;;4969166;28;20054;-72
2023/08/06 07:48:04;;;;;;;23.67;22.38;;;19.30;99.90;;;;;;4971174;28;20046;-73
2023/08/06 07:50:31;;;;;;;25.63;23.25;;;19.40;99.90;;;;;;4973095;28;20617;-73
2023/08/06 07:52:58;;;;;;;25.13;23.73;;;19.60;99.90;;;;;;4976207;28;20679;-72
2023/08/06 07:55:25;;;;;;;24.60;23.23;;;19.30;99.90;;;;;;4965694;28;20046;-72
2023/08/06 07:57:53;;;;;;;25.05;23.55;;;19.50;99.90;;;;;;4971631;28;20039;-72
2023/08/06 08:00:20;;;;;;;26.00;24.50;;;19.70;99.90;;;;;;4963846;28;20038;-72
2023/08/06 08:02:46;;;;;;;30.60;29.00;;;19.80;99.90;;;;;;4966670;28;20409;-72
2023/08/06 08:05:13;;;;;;;31.30;29.48;;;19.80;99.90;;;;;;4968869;28;20081;-72
2023/08/06 08:07:40;;;;;;;30.02;28.35;;;19.80;99.90;;;;;;4970904;28;20047;-73
2023/08/06 08:10:07;;;;;;;30.05;28.35;;;19.70;99.90;;;;;;4972499;28;20046;-72
2023/08/06 08:12:34;;;;;;;29.50;27.77;;;19.90;99.90;;;;;;4968307;28;20042;-73
2023/08/06 08:15:01;;;;;;;29.98;28.23;;;20.10;99.90;;;;;;4968912;28;20054;-73
2023/08/06 08:17:28;;;;;;;30.33;28.73;;;20.20;99.90;;;;;;4964316;28;20795;-72
2023/08/06 08:19:55;;;;;;;31.52;29.73;;;20.40;99.90;;;;;;4969263;28;20108;-72
2023/08/06 08:22:21;;;;;;;31.08;29.17;;;20.40;99.90;;;;;;4966793;28;20576;-72
2023/08/06 08:24:48;;;;;;;31.15;29.55;;;20.50;99.90;;;;;;4971900;28;20567;-73
2023/08/06 08:27:15;;;;;;;31.05;29.35;;;20.70;99.90;;;;;;4967379;28;20043;-73
2023/08/06 08:29:42;;;;;;;31.15;29.27;;;20.90;99.90;;;;;;4970619;28;20300;-73
2023/08/06 08:32:08;;;;;;;29.83;27.95;;;21.30;99.90;;;;;;4965849;28;20038;-73
2023/08/06 08:34:35;;;;;;;28.88;27.27;;;21.70;99.90;;;;;;4967323;28;20070;-73
2023/08/06 08:37:02;;;;;;;29.63;28.02;;;21.90;99.90;;;;;;4970983;28;20093;-72
2023/08/06 08:39:29;;;;;;;29.55;27.98;;;21.90;99.90;;;;;;4968685;28;20746;-72
2023/08/06 08:41:55;;;;;;;30.10;28.48;;;22.10;99.90;;;;;;4974219;28;20055;-73
2023/08/06 08:44:28;;;;;;;29.75;27.77;;;22.20;99.90;;;;;;4971789;28;20039;-73
2023/08/06 08:46:55;;;;;;;28.52;26.92;;;22.20;99.90;;;;;;4977648;28;20038;-73
2023/08/06 08:49:24;;;;;;;29.85;28.25;;;22.40;99.90;;;;;;4969650;28;20496;-72
2023/08/06 08:51:53;;;;;;;28.58;27.08;;;22.60;99.90;;;;;;4975198;28;20038;-73
2023/08/06 08:54:23;;;;;;;30.85;29.13;;;22.90;99.90;;;;;;4972808;28;20694;-73
2023/08/06 08:56:50;;;;;;;29.15;27.55;;;22.70;99.90;;;;;;4981957;28;20042;-73
2023/08/06 08:59:17;;;;;;;32.70;30.73;;;22.20;99.90;;;;;;4973678;28;20047;-72
2023/08/06 09:01:50;;;;;;;32.35;30.63;;;22.30;99.90;;;;;;4978917;28;20117;-72
2023/08/06 09:04:18;;;;;;;30.77;29.08;;;22.30;99.90;;;;;;4971312;28;20664;-72
2023/08/06 09:06:49;;;;;;;31.65;29.85;;;22.60;99.90;;;;;;4991271;28;20039;-72
2023/08/06 09:09:31;;;;;;;33.63;31.83;;;23.00;99.90;;;;;;4971473;28;20073;-72
2023/08/06 09:12:05;;;;;;;33.15;31.25;;;23.00;99.90;;;;;;4973069;28;20078;-72
2023/08/06 09:14:32;;;;;;;33.08;31.27;;;22.70;99.90;;;;;;4975407;28;20054;-72
2023/08/06 09:16:59;;;;;;;28.77;27.15;;;22.90;99.90;;;;;;4977063;28;20043;-72
2023/08/06 09:19:27;;;;;;;30.42;28.83;;;22.90;99.90;;;;;;4985794;28;20045;-72
2023/08/06 09:21:55;;;;;;;27.38;25.98;;;22.60;99.90;;;;;;4999356;28;20019;-73
2023/08/06 09:24:23;;;;;;;29.33;27.65;;;22.10;99.90;;;;;;4991545;28;20055;-72
2023/08/06 09:26:50;;;;;;;28.75;27.25;;;21.90;99.90;;;;;;4982924;28;20039;-72
2023/08/06 09:29:16;;;;;;;32.25;30.27;;;21.40;99.90;;;;;;4971334;28;20058;-71
2023/08/06 09:31:44;;;;;;;30.33;28.70;;;21.20;99.90;;;;;;4981926;28;20050;-72
2023/08/06 09:34:16;;;;;;;27.17;25.67;;;21.60;99.90;;;;;;4981978;28;20045;-73
2023/08/06 09:36:45;;;;;;;31.00;29.10;;;22.30;99.90;;;;;;4978146;28;20046;-73
2023/08/06 09:39:16;;;;;;;31.67;29.77;;;22.40;99.90;;;;;;4978061;28;20614;-72
2023/08/06 09:41:43;;;;;;;32.83;31.02;;;22.40;99.90;;;;;;4972559;28;20038;-72
2023/08/06 09:44:18;;;;;;;31.83;29.92;;;22.00;99.90;;;;;;4974491;28;20050;-72
2023/08/06 09:46:49;;;;;;;32.58;30.77;;;22.10;99.90;;;;;;4974735;28;20045;-73
2023/08/06 09:49:18;;;;;;;33.15;31.25;;;22.30;99.90;;;;;;4977537;28;20065;-72
2023/08/06 09:51:50;;;;;;;32.72;30.95;;;22.50;99.90;;;;;;4976355;28;20125;-72
2023/08/06 09:54:19;;;;;;;32.08;30.27;;;22.40;99.90;;;;;;4968985;28;20081;-72
2023/08/06 09:56:54;;;;;;;34.78;32.88;;;22.40;99.90;;;;;;4981696;28;20069;-73
2023/08/06 09:59:23;;;;;;;32.90;31.00;;;22.60;99.90;;;;;;4969785;28;20134;-72
2023/08/06 10:01:51;;;;;;;33.53;31.73;;;22.60;99.90;;;;;;4972808;28;20038;-71
2023/08/06 10:04:20;;;;;;;32.17;30.48;;;22.60;99.90;;;;;;4973019;28;20053;-70
2023/08/06 10:06:52;;;;;;;34.60;32.67;;;22.80;99.90;;;;;;4979088;28;20058;-72
2023/08/06 10:09:20;;;;;;;34.95;33.25;;;22.70;99.90;;;;;;4973457;28;20497;-72
2023/08/06 10:11:52;;;;;;;36.08;34.13;;;22.90;99.90;;;;;;4986107;28;20038;-72
2023/08/06 10:14:26;;;;;;;34.08;32.28;;;23.20;99.90;;;;;;4965172;28;20085;-73
2023/08/06 10:16:54;;;;;;;35.40;33.60;;;23.50;99.90;;;;;;4975793;28;20133;-73
2023/08/06 10:19:24;;;;;;;35.17;33.28;;;24.10;99.90;;;;;;4966912;28;20053;-72
2023/08/06 10:22:13;;;;;;;35.85;33.95;;;24.20;99.90;;;;;;4972167;28;20050;-71
2023/08/06 10:24:52;;;;;;;36.45;34.55;;;23.70;99.90;;;;;;4976611;28;20105;-73
2023/08/06 10:27:32;;;;;;;37.28;35.17;;;23.80;99.90;;;;;;4969608;28;20052;-72
2023/08/06 10:30:22;;;;;;;35.95;33.95;;;23.80;99.90;;;;;;4975468;28;20460;-73
2023/08/06 10:32:54;;;;;;;36.78;34.70;;;23.70;99.90;;;;;;4975444;28;20042;-73
2023/08/06 10:35:43;;;;;;;37.78;35.63;;;23.70;99.90;;;;;;4973397;28;20052;-73
2023/08/06 10:38:21;;;;;;;39.22;37.05;;;23.80;99.90;;;;;;4972769;28;20050;-72
2023/08/06 10:41:01;;;;;;;36.88;34.88;;;23.90;99.90;;;;;;4967940;28;20050;-73
2023/08/06 10:43:38;;;;;;;32.80;30.92;;;24.60;99.90;;;;;;4971326;28;20046;-73
2023/08/06 10:46:10;;;;;;;37.13;34.85;;;24.40;99.90;;;;;;4975554;28;20051;-72
2023/08/06 10:48:38;;;;;;;30.33;28.55;;;23.80;99.90;;;;;;4970859;28;20132;-73
2023/08/06 10:51:08;;;;;;;31.35;29.55;;;23.80;99.90;;;;;;4974414;28;20329;-73
2023/08/06 10:53:36;;;;;;;37.50;35.42;;;23.30;99.90;;;;;;4972956;28;20086;-71
2023/08/06 10:56:14;;;;;;;31.95;30.05;;;23.20;99.90;;;;;;4972943;28;20101;-74
2023/08/06 10:58:41;;;;;;;30.92;29.13;;;23.30;99.90;;;;;;4971106;28;20061;-73
2023/08/06 11:01:08;;;;;;;30.85;29.15;;;23.50;99.90;;;;;;4974094;28;20404;-71
2023/08/06 11:03:36;;;;;;;29.77;27.88;;;23.40;99.90;;;;;;4969759;28;20698;-72
2023/08/06 11:06:07;;;;;;;29.30;27.52;;;23.10;99.90;;;;;;4972996;28;20046;-72
2023/08/06 11:08:35;;;;;;;30.90;29.20;;;22.80;99.90;;;;;;4973033;28;20039;-72
2023/08/06 11:11:16;;;;;;;32.55;30.75;;;22.50;99.90;;;;;;4971113;28;20721;-73
2023/08/06 11:13:47;;;;;;;31.17;29.48;;;22.40;99.90;;;;;;4969253;28;20627;-73
2023/08/06 11:16:18;;;;;;;30.95;29.35;;;22.40;99.90;;;;;;4969530;28;20058;-72
2023/08/06 11:18:45;;;;;;;31.30;29.55;;;22.20;99.90;;;;;;4967270;28;20046;-72
2023/08/06 11:21:12;;;;;;;31.27;29.23;;;21.70;99.90;;;;;;4965990;28;20122;-72
2023/08/06 11:23:40;;;;;;;31.20;29.50;;;21.30;99.90;;;;;;4971855;28;20038;-72
2023/08/06 11:26:08;;;;;;;30.80;29.05;;;20.60;99.90;;;;;;4969592;28;20540;-72
2023/08/06 11:28:34;;;;;;;31.65;29.30;;;20.60;99.90;;;;;;4966675;28;20046;-72
2023/08/06 11:31:03;;;;;;;30.25;28.63;;;20.50;99.90;;;;;;4970057;28;20130;-72
2023/08/06 11:33:31;;;;;;;29.98;28.38;;;20.40;99.90;;;;;;4961810;28;20581;-72
2023/08/06 11:35:59;;;;;;;29.40;27.80;;;20.50;99.90;;;;;;4973147;28;20057;-72
2023/08/06 11:38:28;;;;;;;29.05;27.45;;;20.50;99.90;;;;;;4972930;28;20076;-73
2023/08/06 11:40:55;;;;;;;27.60;26.10;;;20.80;99.90;;;;;;4956400;28;20051;-73
2023/08/06 11:43:23;;;;;;;27.33;25.83;;;21.00;99.90;;;;;;4980616;28;20051;-71
2023/08/06 11:45:52;;;;;;;27.00;25.50;;;21.20;99.90;;;;;;4971193;28;20629;-72
2023/08/06 11:48:19;;;;;;;30.80;29.20;;;21.10;99.90;;;;;;4975640;28;20070;-71
2023/08/06 11:50:46;;;;;;;30.65;28.95;;;21.20;99.90;;;;;;4970468;28;20053;-72
2023/08/06 11:53:14;;;;;;;31.33;29.60;;;21.10;99.90;;;;;;4973486;28;20125;-71
2023/08/06 11:55:42;;;;;;;32.08;30.27;;;20.00;99.90;;;;;;4961039;28;20142;-72
2023/08/06 11:58:11;;;;;;;30.27;28.67;;;20.00;99.90;;;;;;4972511;28;20145;-72
2023/08/06 12:00:38;;;;;;;29.42;27.83;;;20.10;99.90;;;;;;4966933;28;20085;-72
2023/08/06 12:03:06;;;;;;;30.27;28.58;;;20.30;99.90;;;;;;4974597;28;20054;-71
2023/08/06 12:05:33;;;;;;;29.33;27.83;;;20.20;99.90;;;;;;4967956;28;20052;-71
2023/08/06 12:08:02;;;;;;;29.65;27.98;;;20.30;99.90;;;;;;4971494;28;20042;-72
2023/08/06 12:10:30;;;;;;;29.25;27.65;;;20.20;99.90;;;;;;4968188;28;20732;-72
2023/08/06 12:12:57;;;;;;;29.88;28.17;;;20.30;99.90;;;;;;4985249;28;20455;-70
2023/08/06 12:15:24;;;;;;;30.70;28.90;;;20.30;99.90;;;;;;4966740;28;20054;-72
2023/08/06 12:17:51;;;;;;;30.30;28.50;;;20.00;99.90;;;;;;4966555;28;20046;-72
2023/08/06 12:20:18;;;;;;;30.88;28.17;;;19.70;99.90;;;;;;4972145;28;20120;-72
2023/08/06 12:22:45;;;;;;;29.40;27.50;;;19.40;99.90;;;;;;4970028;28;20058;-73
2023/08/06 12:25:13;;;;;;;28.40;26.75;;;19.10;99.90;;;;;;4968421;28;20065;-73
2023/08/06 12:27:42;;;;;;;26.80;25.30;;;18.90;99.90;;;;;;4968653;28;20041;-73
2023/08/06 12:30:10;;;;;;;24.27;22.55;;;18.60;99.90;;;;;;4970312;28;20042;-72
2023/08/06 12:32:38;;;;;;;22.80;21.40;;;18.50;99.90;;;;;;4967515;28;20607;-72
2023/08/06 12:35:07;;;;;;;22.70;21.23;;;18.20;99.90;;;;;;4975399;28;20046;-72